sensor_id;sensor_type;location;lat;lon;timestamp;P1;durP1;ratioP1;P2;durP2;ratioP2
3307;SDS011;1666;48.898;9.182;2023-04-27T00:00:58;13.52;;;5.60;;
3307;SDS011;1666;48.898;9.182;2023-04-27T00:03:28;9.82;;;6.05;;
3307;SDS011;1666;48.898;9.182;2023-04-27T00:06:00;12.85;;;7.25;;
3307;SDS011;1666;48.898;9.182;2023-04-27T00:08:30;10.48;;;6.80;;
3307;SDS011;1666;48.898;9.182;2023-04-27T00:11:00;10.48;;;6.07;;
3307;SDS011;1666;48.898;9.182;2023-04-27T00:13:31;13.00;;;6.25;;
3307;SDS011;1666;48.898;9.182;2023-04-27T00:16:01;14.30;;;7.05;;
3307;SDS011;1666;48.898;9.182;2023-04-27T00:18:31;12.50;;;7.18;;
3307;SDS011;1666;48.898;9.182;2023-04-27T00:21:04;12.27;;;6.57;;
3307;SDS011;1666;48.898;9.182;2023-04-27T00:23:34;10.48;;;6.43;;
3307;SDS011;1666;48.898;9.182;2023-04-27T00:26:04;10.38;;;6.95;;
3307;SDS011;1666;48.898;9.182;2023-04-27T00:28:34;9.38;;;6.22;;
3307;SDS011;1666;48.898;9.182;2023-04-27T00:31:04;12.48;;;6.45;;
3307;SDS011;1666;48.898;9.182;2023-04-27T00:33:34;12.02;;;6.72;;
3307;SDS011;1666;48.898;9.182;2023-04-27T00:36:07;11.57;;;6.68;;
3307;SDS011;1666;48.898;9.182;2023-04-27T00:38:37;9.52;;;6.57;;
3307;SDS011;1666;48.898;9.182;2023-04-27T00:41:07;11.80;;;6.57;;
3307;SDS011;1666;48.898;9.182;2023-04-27T00:43:40;9.60;;;6.82;;
3307;SDS011;1666;48.898;9.182;2023-04-27T00:46:11;17.00;;;6.47;;
3307;SDS011;1666;48.898;9.182;2023-04-27T00:48:42;12.55;;;7.10;;
3307;SDS011;1666;48.898;9.182;2023-04-27T00:51:15;7.45;;;6.55;;
3307;SDS011;1666;48.898;9.182;2023-04-27T00:53:45;9.52;;;6.47;;
3307;SDS011;1666;48.898;9.182;2023-04-27T00:56:15;11.80;;;6.63;;
3307;SDS011;1666;48.898;9.182;2023-04-27T00:58:45;10.15;;;6.90;;
3307;SDS011;1666;48.898;9.182;2023-04-27T01:01:15;11.63;;;7.70;;
3307;SDS011;1666;48.898;9.182;2023-04-27T01:03:46;11.45;;;6.53;;
3307;SDS011;1666;48.898;9.182;2023-04-27T01:06:19;10.88;;;6.88;;
3307;SDS011;1666;48.898;9.182;2023-04-27T01:08:49;12.55;;;7.30;;
3307;SDS011;1666;48.898;9.182;2023-04-27T01:11:19;12.27;;;7.20;;
3307;SDS011;1666;48.898;9.182;2023-04-27T01:13:49;9.15;;;7.05;;
3307;SDS011;1666;48.898;9.182;2023-04-27T01:16:19;9.43;;;6.43;;
3307;SDS011;1666;48.898;9.182;2023-04-27T01:18:49;12.30;;;7.22;;
3307;SDS011;1666;48.898;9.182;2023-04-27T01:21:21;10.85;;;6.85;;
3307;SDS011;1666;48.898;9.182;2023-04-27T01:23:54;10.32;;;7.32;;
3307;SDS011;1666;48.898;9.182;2023-04-27T01:26:24;10.77;;;7.40;;
3307;SDS011;1666;48.898;9.182;2023-04-27T01:28:54;10.50;;;7.63;;
3307;SDS011;1666;48.898;9.182;2023-04-27T01:31:24;13.07;;;8.13;;
3307;SDS011;1666;48.898;9.182;2023-04-27T01:33:54;11.02;;;7.60;;
3307;SDS011;1666;48.898;9.182;2023-04-27T01:36:24;12.95;;;8.00;;
3307;SDS011;1666;48.898;9.182;2023-04-27T01:38:56;12.40;;;8.15;;
3307;SDS011;1666;48.898;9.182;2023-04-27T01:41:26;12.55;;;8.70;;
3307;SDS011;1666;48.898;9.182;2023-04-27T01:43:56;12.85;;;8.15;;
3307;SDS011;1666;48.898;9.182;2023-04-27T01:46:26;12.05;;;8.02;;
3307;SDS011;1666;48.898;9.182;2023-04-27T01:48:56;11.18;;;8.30;;
3307;SDS011;1666;48.898;9.182;2023-04-27T01:51:27;10.38;;;7.97;;
3307;SDS011;1666;48.898;9.182;2023-04-27T01:54:00;13.30;;;8.18;;
3307;SDS011;1666;48.898;9.182;2023-04-27T01:56:30;10.32;;;8.23;;
3307;SDS011;1666;48.898;9.182;2023-04-27T01:59:00;11.43;;;8.52;;
3307;SDS011;1666;48.898;9.182;2023-04-27T02:01:30;12.98;;;7.82;;
3307;SDS011;1666;48.898;9.182;2023-04-27T02:04:00;11.68;;;7.90;;
3307;SDS011;1666;48.898;9.182;2023-04-27T02:06:31;12.63;;;7.65;;
3307;SDS011;1666;48.898;9.182;2023-04-27T02:09:03;12.13;;;7.63;;
3307;SDS011;1666;48.898;9.182;2023-04-27T02:11:33;11.70;;;7.82;;
3307;SDS011;1666;48.898;9.182;2023-04-27T02:14:03;11.20;;;7.20;;
3307;SDS011;1666;48.898;9.182;2023-04-27T02:16:33;12.00;;;8.18;;
3307;SDS011;1666;48.898;9.182;2023-04-27T02:19:03;11.45;;;7.82;;
3307;SDS011;1666;48.898;9.182;2023-04-27T02:21:33;13.43;;;8.45;;
3307;SDS011;1666;48.898;9.182;2023-04-27T02:24:06;11.10;;;7.88;;
3307;SDS011;1666;48.898;9.182;2023-04-27T02:26:37;13.43;;;8.32;;
3307;SDS011;1666;48.898;9.182;2023-04-27T02:29:07;11.57;;;7.68;;
3307;SDS011;1666;48.898;9.182;2023-04-27T02:31:38;11.57;;;7.82;;
3307;SDS011;1666;48.898;9.182;2023-04-27T02:34:08;12.10;;;7.80;;
3307;SDS011;1666;48.898;9.182;2023-04-27T02:36:38;12.77;;;7.93;;
3307;SDS011;1666;48.898;9.182;2023-04-27T02:39:11;9.93;;;7.75;;
3307;SDS011;1666;48.898;9.182;2023-04-27T02:41:41;13.80;;;8.27;;
3307;SDS011;1666;48.898;9.182;2023-04-27T02:44:11;11.40;;;7.55;;
3307;SDS011;1666;48.898;9.182;2023-04-27T02:46:41;14.35;;;7.80;;
3307;SDS011;1666;48.898;9.182;2023-04-27T02:49:11;12.65;;;8.27;;
3307;SDS011;1666;48.898;9.182;2023-04-27T02:51:41;12.50;;;8.50;;
3307;SDS011;1666;48.898;9.182;2023-04-27T02:54:14;10.18;;;7.40;;
3307;SDS011;1666;48.898;9.182;2023-04-27T02:56:44;12.25;;;7.40;;
3307;SDS011;1666;48.898;9.182;2023-04-27T02:59:14;12.35;;;8.38;;
3307;SDS011;1666;48.898;9.182;2023-04-27T03:01:44;12.30;;;8.70;;
3307;SDS011;1666;48.898;9.182;2023-04-27T03:04:14;10.07;;;7.80;;
3307;SDS011;1666;48.898;9.182;2023-04-27T03:06:44;15.85;;;8.55;;
3307;SDS011;1666;48.898;9.182;2023-04-27T03:09:16;11.75;;;8.38;;
3307;SDS011;1666;48.898;9.182;2023-04-27T03:11:46;11.48;;;7.50;;
3307;SDS011;1666;48.898;9.182;2023-04-27T03:14:16;10.77;;;7.55;;
3307;SDS011;1666;48.898;9.182;2023-04-27T03:16:46;11.70;;;8.38;;
3307;SDS011;1666;48.898;9.182;2023-04-27T03:19:16;10.77;;;8.13;;
3307;SDS011;1666;48.898;9.182;2023-04-27T03:21:46;12.75;;;7.63;;
3307;SDS011;1666;48.898;9.182;2023-04-27T03:24:19;9.50;;;7.15;;
3307;SDS011;1666;48.898;9.182;2023-04-27T03:29:20;11.57;;;8.07;;
3307;SDS011;1666;48.898;9.182;2023-04-27T03:31:50;15.07;;;8.63;;
3307;SDS011;1666;48.898;9.182;2023-04-27T03:34:20;11.63;;;8.02;;
3307;SDS011;1666;48.898;9.182;2023-04-27T03:36:50;11.82;;;8.02;;
3307;SDS011;1666;48.898;9.182;2023-04-27T03:39:22;10.82;;;8.20;;
3307;SDS011;1666;48.898;9.182;2023-04-27T03:41:52;11.65;;;7.97;;
3307;SDS011;1666;48.898;9.182;2023-04-27T03:44:23;12.95;;;7.60;;
3307;SDS011;1666;48.898;9.182;2023-04-27T03:46:52;9.10;;;7.78;;
3307;SDS011;1666;48.898;9.182;2023-04-27T03:49:22;10.95;;;7.40;;
3307;SDS011;1666;48.898;9.182;2023-04-27T03:51:53;10.82;;;7.35;;
3307;SDS011;1666;48.898;9.182;2023-04-27T03:54:25;11.75;;;7.68;;
3307;SDS011;1666;48.898;9.182;2023-04-27T03:56:56;10.35;;;7.35;;
3307;SDS011;1666;48.898;9.182;2023-04-27T03:59:27;10.02;;;7.10;;
3307;SDS011;1666;48.898;9.182;2023-04-27T04:01:57;11.20;;;7.57;;
3307;SDS011;1666;48.898;9.182;2023-04-27T04:04:29;13.63;;;6.93;;
3307;SDS011;1666;48.898;9.182;2023-04-27T04:06:59;9.98;;;7.40;;
3307;SDS011;1666;48.898;9.182;2023-04-27T04:09:32;11.13;;;7.20;;
3307;SDS011;1666;48.898;9.182;2023-04-27T04:12:02;10.73;;;7.20;;
3307;SDS011;1666;48.898;9.182;2023-04-27T04:14:32;12.00;;;7.22;;
3307;SDS011;1666;48.898;9.182;2023-04-27T04:17:02;11.32;;;7.20;;
3307;SDS011;1666;48.898;9.182;2023-04-27T04:19:32;8.82;;;6.60;;
3307;SDS011;1666;48.898;9.182;2023-04-27T04:22:02;8.68;;;6.60;;
3307;SDS011;1666;48.898;9.182;2023-04-27T04:24:35;12.40;;;7.85;;
3307;SDS011;1666;48.898;9.182;2023-04-27T04:27:05;9.70;;;7.07;;
3307;SDS011;1666;48.898;9.182;2023-04-27T04:29:35;10.38;;;7.13;;
3307;SDS011;1666;48.898;9.182;2023-04-27T04:32:05;11.02;;;6.97;;
3307;SDS011;1666;48.898;9.182;2023-04-27T04:34:37;11.20;;;7.30;;
3307;SDS011;1666;48.898;9.182;2023-04-27T04:37:07;11.18;;;7.20;;
3307;SDS011;1666;48.898;9.182;2023-04-27T04:39:41;9.20;;;6.53;;
3307;SDS011;1666;48.898;9.182;2023-04-27T04:42:10;11.15;;;7.55;;
3307;SDS011;1666;48.898;9.182;2023-04-27T04:44:41;11.23;;;7.30;;
3307;SDS011;1666;48.898;9.182;2023-04-27T04:47:11;7.85;;;6.82;;
3307;SDS011;1666;48.898;9.182;2023-04-27T04:49:41;9.48;;;7.18;;
3307;SDS011;1666;48.898;9.182;2023-04-27T04:52:11;14.10;;;8.32;;
3307;SDS011;1666;48.898;9.182;2023-04-27T04:54:43;10.82;;;8.07;;
3307;SDS011;1666;48.898;9.182;2023-04-27T04:57:13;9.45;;;7.15;;
3307;SDS011;1666;48.898;9.182;2023-04-27T04:59:43;10.88;;;7.25;;
3307;SDS011;1666;48.898;9.182;2023-04-27T05:02:13;8.75;;;6.85;;
3307;SDS011;1666;48.898;9.182;2023-04-27T05:04:43;9.88;;;6.80;;
3307;SDS011;1666;48.898;9.182;2023-04-27T05:07:13;9.50;;;6.15;;
3307;SDS011;1666;48.898;9.182;2023-04-27T05:09:52;12.90;;;6.63;;
3307;SDS011;1666;48.898;9.182;2023-04-27T05:12:22;10.80;;;6.57;;
3307;SDS011;1666;48.898;9.182;2023-04-27T05:14:52;13.48;;;6.10;;
3307;SDS011;1666;48.898;9.182;2023-04-27T05:17:22;10.57;;;6.70;;
3307;SDS011;1666;48.898;9.182;2023-04-27T05:19:52;13.63;;;7.13;;
3307;SDS011;1666;48.898;9.182;2023-04-27T05:22:22;15.30;;;7.07;;
3307;SDS011;1666;48.898;9.182;2023-04-27T05:24:54;10.40;;;7.32;;
3307;SDS011;1666;48.898;9.182;2023-04-27T05:27:24;12.65;;;8.05;;
3307;SDS011;1666;48.898;9.182;2023-04-27T05:29:55;11.98;;;8.05;;
3307;SDS011;1666;48.898;9.182;2023-04-27T05:32:25;11.48;;;7.60;;
3307;SDS011;1666;48.898;9.182;2023-04-27T05:34:56;14.85;;;7.78;;
3307;SDS011;1666;48.898;9.182;2023-04-27T05:37:25;12.35;;;7.10;;
3307;SDS011;1666;48.898;9.182;2023-04-27T05:39:58;12.95;;;7.88;;
3307;SDS011;1666;48.898;9.182;2023-04-27T05:42:29;14.27;;;7.32;;
3307;SDS011;1666;48.898;9.182;2023-04-27T05:44:59;13.43;;;7.22;;
3307;SDS011;1666;48.898;9.182;2023-04-27T05:47:30;11.07;;;6.65;;
3307;SDS011;1666;48.898;9.182;2023-04-27T05:50:00;11.18;;;6.25;;
3307;SDS011;1666;48.898;9.182;2023-04-27T05:52:30;16.52;;;7.07;;
3307;SDS011;1666;48.898;9.182;2023-04-27T05:55:06;16.30;;;7.82;;
3307;SDS011;1666;48.898;9.182;2023-04-27T05:57:36;11.27;;;6.85;;
3307;SDS011;1666;48.898;9.182;2023-04-27T06:00:08;9.25;;;6.55;;
3307;SDS011;1666;48.898;9.182;2023-04-27T06:02:39;9.15;;;7.05;;
3307;SDS011;1666;48.898;9.182;2023-04-27T06:05:09;10.90;;;6.80;;
3307;SDS011;1666;48.898;9.182;2023-04-27T06:07:39;15.55;;;6.38;;
3307;SDS011;1666;48.898;9.182;2023-04-27T06:10:11;10.45;;;5.93;;
3307;SDS011;1666;48.898;9.182;2023-04-27T06:12:42;9.98;;;6.80;;
3307;SDS011;1666;48.898;9.182;2023-04-27T06:15:12;8.73;;;5.68;;
3307;SDS011;1666;48.898;9.182;2023-04-27T06:17:42;8.10;;;5.38;;
3307;SDS011;1666;48.898;9.182;2023-04-27T06:20:12;10.98;;;6.13;;
3307;SDS011;1666;48.898;9.182;2023-04-27T06:22:42;16.75;;;6.15;;
3307;SDS011;1666;48.898;9.182;2023-04-27T06:25:15;11.27;;;5.35;;
3307;SDS011;1666;48.898;9.182;2023-04-27T06:27:45;9.07;;;5.45;;
3307;SDS011;1666;48.898;9.182;2023-04-27T06:30:15;8.82;;;5.53;;
3307;SDS011;1666;48.898;9.182;2023-04-27T06:32:45;14.10;;;6.65;;
3307;SDS011;1666;48.898;9.182;2023-04-27T06:35:15;10.38;;;6.13;;
3307;SDS011;1666;48.898;9.182;2023-04-27T06:37:45;11.48;;;5.93;;
3307;SDS011;1666;48.898;9.182;2023-04-27T06:40:18;9.55;;;5.60;;
3307;SDS011;1666;48.898;9.182;2023-04-27T06:42:48;11.52;;;5.90;;
3307;SDS011;1666;48.898;9.182;2023-04-27T06:45:18;9.48;;;6.45;;
3307;SDS011;1666;48.898;9.182;2023-04-27T06:47:48;9.48;;;5.90;;
3307;SDS011;1666;48.898;9.182;2023-04-27T06:50:18;10.60;;;6.07;;
3307;SDS011;1666;48.898;9.182;2023-04-27T06:52:48;8.52;;;6.22;;
3307;SDS011;1666;48.898;9.182;2023-04-27T06:55:20;15.93;;;9.88;;
3307;SDS011;1666;48.898;9.182;2023-04-27T06:57:50;11.60;;;7.18;;
3307;SDS011;1666;48.898;9.182;2023-04-27T07:00:20;12.00;;;6.10;;
3307;SDS011;1666;48.898;9.182;2023-04-27T07:02:51;10.55;;;6.15;;
3307;SDS011;1666;48.898;9.182;2023-04-27T07:05:21;9.90;;;6.18;;
3307;SDS011;1666;48.898;9.182;2023-04-27T07:07:51;12.60;;;7.05;;
3307;SDS011;1666;48.898;9.182;2023-04-27T07:10:24;14.57;;;6.50;;
3307;SDS011;1666;48.898;9.182;2023-04-27T07:12:54;10.07;;;6.30;;
3307;SDS011;1666;48.898;9.182;2023-04-27T07:15:23;13.52;;;7.40;;
3307;SDS011;1666;48.898;9.182;2023-04-27T07:17:54;10.50;;;5.97;;
3307;SDS011;1666;48.898;9.182;2023-04-27T07:20:24;10.43;;;6.18;;
3307;SDS011;1666;48.898;9.182;2023-04-27T07:22:54;10.77;;;6.95;;
3307;SDS011;1666;48.898;9.182;2023-04-27T07:25:26;15.80;;;6.93;;
3307;SDS011;1666;48.898;9.182;2023-04-27T07:27:56;15.43;;;6.53;;
3307;SDS011;1666;48.898;9.182;2023-04-27T07:30:26;11.57;;;6.40;;
3307;SDS011;1666;48.898;9.182;2023-04-27T07:32:56;11.60;;;6.78;;
3307;SDS011;1666;48.898;9.182;2023-04-27T07:35:26;8.02;;;5.55;;
3307;SDS011;1666;48.898;9.182;2023-04-27T07:37:58;11.65;;;6.05;;
3307;SDS011;1666;48.898;9.182;2023-04-27T07:40:31;11.43;;;5.78;;
3307;SDS011;1666;48.898;9.182;2023-04-27T07:43:02;9.45;;;6.50;;
3307;SDS011;1666;48.898;9.182;2023-04-27T07:45:32;9.90;;;6.50;;
3307;SDS011;1666;48.898;9.182;2023-04-27T07:48:04;9.27;;;6.55;;
3307;SDS011;1666;48.898;9.182;2023-04-27T07:50:35;10.05;;;6.35;;
3307;SDS011;1666;48.898;9.182;2023-04-27T07:53:05;10.43;;;6.60;;
3307;SDS011;1666;48.898;9.182;2023-04-27T07:55:37;7.80;;;6.18;;
3307;SDS011;1666;48.898;9.182;2023-04-27T08:00:39;11.98;;;6.97;;
3307;SDS011;1666;48.898;9.182;2023-04-27T08:03:09;15.23;;;6.80;;
3307;SDS011;1666;48.898;9.182;2023-04-27T08:05:39;10.02;;;6.28;;
3307;SDS011;1666;48.898;9.182;2023-04-27T08:08:10;10.80;;;6.38;;
3307;SDS011;1666;48.898;9.182;2023-04-27T08:10:42;12.70;;;6.45;;
3307;SDS011;1666;48.898;9.182;2023-04-27T08:13:12;11.25;;;6.45;;
3307;SDS011;1666;48.898;9.182;2023-04-27T08:15:42;11.57;;;6.28;;
3307;SDS011;1666;48.898;9.182;2023-04-27T08:18:12;9.80;;;5.50;;
3307;SDS011;1666;48.898;9.182;2023-04-27T08:20:43;9.18;;;5.97;;
3307;SDS011;1666;48.898;9.182;2023-04-27T08:23:13;9.20;;;5.40;;
3307;SDS011;1666;48.898;9.182;2023-04-27T08:25:46;11.68;;;5.88;;
3307;SDS011;1666;48.898;9.182;2023-04-27T08:28:16;15.05;;;7.50;;
3307;SDS011;1666;48.898;9.182;2023-04-27T08:30:46;12.35;;;6.05;;
3307;SDS011;1666;48.898;9.182;2023-04-27T08:33:17;8.30;;;5.32;;
3307;SDS011;1666;48.898;9.182;2023-04-27T08:35:47;8.75;;;5.22;;
3307;SDS011;1666;48.898;9.182;2023-04-27T08:38:17;9.27;;;5.25;;
3307;SDS011;1666;48.898;9.182;2023-04-27T08:40:53;8.68;;;5.45;;
3307;SDS011;1666;48.898;9.182;2023-04-27T08:43:33;8.93;;;5.22;;
3307;SDS011;1666;48.898;9.182;2023-04-27T08:46:03;10.23;;;5.20;;
3307;SDS011;1666;48.898;9.182;2023-04-27T08:48:33;9.55;;;5.38;;
3307;SDS011;1666;48.898;9.182;2023-04-27T08:51:03;8.18;;;5.40;;
3307;SDS011;1666;48.898;9.182;2023-04-27T08:53:39;6.68;;;4.80;;
3307;SDS011;1666;48.898;9.182;2023-04-27T08:56:19;7.93;;;4.85;;
3307;SDS011;1666;48.898;9.182;2023-04-27T08:58:51;10.00;;;4.97;;
3307;SDS011;1666;48.898;9.182;2023-04-27T09:01:21;9.82;;;4.97;;
3307;SDS011;1666;48.898;9.182;2023-04-27T09:03:54;11.00;;;5.40;;
3307;SDS011;1666;48.898;9.182;2023-04-27T09:06:29;5.95;;;4.70;;
3307;SDS011;1666;48.898;9.182;2023-04-27T09:09:00;8.65;;;4.35;;
3307;SDS011;1666;48.898;9.182;2023-04-27T09:11:33;7.70;;;4.50;;
3307;SDS011;1666;48.898;9.182;2023-04-27T09:14:14;7.50;;;4.63;;
3307;SDS011;1666;48.898;9.182;2023-04-27T09:16:52;9.82;;;4.28;;
3307;SDS011;1666;48.898;9.182;2023-04-27T09:19:24;8.35;;;4.20;;
3307;SDS011;1666;48.898;9.182;2023-04-27T09:22:04;7.18;;;3.80;;
3307;SDS011;1666;48.898;9.182;2023-04-27T09:24:36;8.82;;;4.25;;
3307;SDS011;1666;48.898;9.182;2023-04-27T09:27:09;10.55;;;5.72;;
3307;SDS011;1666;48.898;9.182;2023-04-27T09:29:48;7.25;;;5.25;;
3307;SDS011;1666;48.898;9.182;2023-04-27T09:32:18;5.53;;;4.20;;
3307;SDS011;1666;48.898;9.182;2023-04-27T09:34:48;8.85;;;4.50;;
3307;SDS011;1666;48.898;9.182;2023-04-27T09:37:18;7.72;;;5.18;;
3307;SDS011;1666;48.898;9.182;2023-04-27T09:39:49;5.63;;;4.78;;
3307;SDS011;1666;48.898;9.182;2023-04-27T09:42:21;7.13;;;4.82;;
3307;SDS011;1666;48.898;9.182;2023-04-27T09:44:52;7.45;;;5.38;;
3307;SDS011;1666;48.898;9.182;2023-04-27T09:47:23;14.07;;;5.60;;
3307;SDS011;1666;48.898;9.182;2023-04-27T09:49:54;7.07;;;5.03;;
3307;SDS011;1666;48.898;9.182;2023-04-27T09:52:24;8.95;;;4.50;;
3307;SDS011;1666;48.898;9.182;2023-04-27T09:54:54;10.52;;;5.10;;
3307;SDS011;1666;48.898;9.182;2023-04-27T09:57:29;8.82;;;5.28;;
3307;SDS011;1666;48.898;9.182;2023-04-27T10:00:12;7.75;;;5.65;;
3307;SDS011;1666;48.898;9.182;2023-04-27T10:02:54;8.57;;;5.30;;
3307;SDS011;1666;48.898;9.182;2023-04-27T10:05:39;11.63;;;5.15;;
3307;SDS011;1666;48.898;9.182;2023-04-27T10:08:18;11.57;;;5.00;;
3307;SDS011;1666;48.898;9.182;2023-04-27T10:10:49;10.18;;;5.22;;
3307;SDS011;1666;48.898;9.182;2023-04-27T10:13:24;8.10;;;4.90;;
3307;SDS011;1666;48.898;9.182;2023-04-27T10:15:55;10.02;;;5.22;;
3307;SDS011;1666;48.898;9.182;2023-04-27T10:18:25;9.07;;;4.85;;
3307;SDS011;1666;48.898;9.182;2023-04-27T10:21:07;7.95;;;5.10;;
3307;SDS011;1666;48.898;9.182;2023-04-27T10:23:44;9.32;;;4.50;;
3307;SDS011;1666;48.898;9.182;2023-04-27T10:26:21;7.43;;;4.13;;
3307;SDS011;1666;48.898;9.182;2023-04-27T10:28:59;9.15;;;5.40;;
3307;SDS011;1666;48.898;9.182;2023-04-27T10:31:34;9.77;;;4.78;;
3307;SDS011;1666;48.898;9.182;2023-04-27T10:34:14;7.18;;;4.75;;
3307;SDS011;1666;48.898;9.182;2023-04-27T10:36:47;7.25;;;4.88;;
3307;SDS011;1666;48.898;9.182;2023-04-27T10:39:17;7.88;;;4.93;;
3307;SDS011;1666;48.898;9.182;2023-04-27T10:42:09;8.80;;;5.15;;
3307;SDS011;1666;48.898;9.182;2023-04-27T10:44:52;8.50;;;4.55;;
3307;SDS011;1666;48.898;9.182;2023-04-27T10:50:05;11.95;;;4.85;;
3307;SDS011;1666;48.898;9.182;2023-04-27T10:52:40;9.07;;;5.13;;
3307;SDS011;1666;48.898;9.182;2023-04-27T10:55:12;9.57;;;4.90;;
3307;SDS011;1666;48.898;9.182;2023-04-27T10:57:47;10.13;;;4.70;;
3307;SDS011;1666;48.898;9.182;2023-04-27T11:00:24;10.48;;;4.30;;
3307;SDS011;1666;48.898;9.182;2023-04-27T11:02:55;5.88;;;3.90;;
3307;SDS011;1666;48.898;9.182;2023-04-27T11:05:27;8.15;;;4.93;;
3307;SDS011;1666;48.898;9.182;2023-04-27T11:08:05;6.60;;;4.97;;
3307;SDS011;1666;48.898;9.182;2023-04-27T11:10:37;7.45;;;4.20;;
3307;SDS011;1666;48.898;9.182;2023-04-27T11:13:08;8.13;;;4.47;;
3307;SDS011;1666;48.898;9.182;2023-04-27T11:15:43;9.07;;;4.50;;
3307;SDS011;1666;48.898;9.182;2023-04-27T11:18:15;9.18;;;4.45;;
3307;SDS011;1666;48.898;9.182;2023-04-27T11:20:47;11.70;;;4.65;;
3307;SDS011;1666;48.898;9.182;2023-04-27T11:23:21;9.13;;;4.20;;
3307;SDS011;1666;48.898;9.182;2023-04-27T11:25:53;8.52;;;4.25;;
3307;SDS011;1666;48.898;9.182;2023-04-27T11:28:23;6.90;;;4.07;;
3307;SDS011;1666;48.898;9.182;2023-04-27T11:30:57;12.65;;;4.43;;
3307;SDS011;1666;48.898;9.182;2023-04-27T11:33:27;6.85;;;3.75;;
3307;SDS011;1666;48.898;9.182;2023-04-27T11:35:58;9.15;;;4.90;;
3307;SDS011;1666;48.898;9.182;2023-04-27T11:38:31;5.50;;;4.13;;
3307;SDS011;1666;48.898;9.182;2023-04-27T11:41:03;6.28;;;4.53;;
3307;SDS011;1666;48.898;9.182;2023-04-27T11:43:35;9.23;;;4.00;;
3307;SDS011;1666;48.898;9.182;2023-04-27T11:46:11;9.07;;;4.82;;
3307;SDS011;1666;48.898;9.182;2023-04-27T11:48:41;8.80;;;4.53;;
3307;SDS011;1666;48.898;9.182;2023-04-27T11:51:11;8.55;;;4.45;;
3307;SDS011;1666;48.898;9.182;2023-04-27T11:53:41;6.93;;;4.30;;
3307;SDS011;1666;48.898;9.182;2023-04-27T11:56:17;9.48;;;4.97;;
3307;SDS011;1666;48.898;9.182;2023-04-27T11:58:47;7.90;;;4.88;;
3307;SDS011;1666;48.898;9.182;2023-04-27T12:01:20;8.90;;;4.70;;
3307;SDS011;1666;48.898;9.182;2023-04-27T12:04:03;6.68;;;5.15;;
3307;SDS011;1666;48.898;9.182;2023-04-27T12:06:33;8.60;;;4.53;;
3307;SDS011;1666;48.898;9.182;2023-04-27T12:09:04;8.25;;;4.10;;
3307;SDS011;1666;48.898;9.182;2023-04-27T12:11:34;8.15;;;4.97;;
3307;SDS011;1666;48.898;9.182;2023-04-27T12:14:04;7.25;;;4.57;;
3307;SDS011;1666;48.898;9.182;2023-04-27T12:16:36;7.90;;;4.35;;
3307;SDS011;1666;48.898;9.182;2023-04-27T12:19:06;9.77;;;4.32;;
3307;SDS011;1666;48.898;9.182;2023-04-27T12:21:36;12.48;;;4.47;;
3307;SDS011;1666;48.898;9.182;2023-04-27T12:24:07;7.22;;;3.53;;
3307;SDS011;1666;48.898;9.182;2023-04-27T12:26:38;6.32;;;3.90;;
3307;SDS011;1666;48.898;9.182;2023-04-27T12:29:07;8.23;;;4.07;;
3307;SDS011;1666;48.898;9.182;2023-04-27T12:31:40;6.68;;;3.83;;
3307;SDS011;1666;48.898;9.182;2023-04-27T12:34:10;6.88;;;3.60;;
3307;SDS011;1666;48.898;9.182;2023-04-27T12:36:40;9.82;;;3.80;;
3307;SDS011;1666;48.898;9.182;2023-04-27T12:39:11;5.72;;;3.25;;
3307;SDS011;1666;48.898;9.182;2023-04-27T12:41:43;7.85;;;4.03;;
3307;SDS011;1666;48.898;9.182;2023-04-27T12:44:14;6.15;;;3.33;;
3307;SDS011;1666;48.898;9.182;2023-04-27T12:46:47;6.45;;;3.75;;
3307;SDS011;1666;48.898;9.182;2023-04-27T12:49:18;5.10;;;2.90;;
3307;SDS011;1666;48.898;9.182;2023-04-27T12:51:48;4.32;;;3.22;;
3307;SDS011;1666;48.898;9.182;2023-04-27T12:54:18;6.85;;;3.55;;
3307;SDS011;1666;48.898;9.182;2023-04-27T12:56:48;6.50;;;3.45;;
3307;SDS011;1666;48.898;9.182;2023-04-27T12:59:18;7.07;;;3.47;;
3307;SDS011;1666;48.898;9.182;2023-04-27T13:01:50;9.23;;;3.65;;
3307;SDS011;1666;48.898;9.182;2023-04-27T13:04:20;5.22;;;2.80;;
3307;SDS011;1666;48.898;9.182;2023-04-27T13:06:51;6.13;;;3.00;;
3307;SDS011;1666;48.898;9.182;2023-04-27T13:09:21;6.07;;;3.05;;
3307;SDS011;1666;48.898;9.182;2023-04-27T13:11:51;8.68;;;3.10;;
3307;SDS011;1666;48.898;9.182;2023-04-27T13:14:21;10.63;;;3.75;;
3307;SDS011;1666;48.898;9.182;2023-04-27T13:16:53;5.95;;;3.20;;
3307;SDS011;1666;48.898;9.182;2023-04-27T13:19:23;5.93;;;3.33;;
3307;SDS011;1666;48.898;9.182;2023-04-27T13:21:53;5.10;;;2.92;;
3307;SDS011;1666;48.898;9.182;2023-04-27T13:24:23;4.90;;;3.28;;
3307;SDS011;1666;48.898;9.182;2023-04-27T13:26:54;8.35;;;3.47;;
3307;SDS011;1666;48.898;9.182;2023-04-27T13:29:24;5.85;;;3.58;;
3307;SDS011;1666;48.898;9.182;2023-04-27T13:31:57;6.55;;;3.65;;
3307;SDS011;1666;48.898;9.182;2023-04-27T13:34:27;5.80;;;3.90;;
3307;SDS011;1666;48.898;9.182;2023-04-27T13:36:57;7.90;;;2.88;;
3307;SDS011;1666;48.898;9.182;2023-04-27T13:39:27;8.50;;;3.75;;
3307;SDS011;1666;48.898;9.182;2023-04-27T13:41:58;4.57;;;3.75;;
3307;SDS011;1666;48.898;9.182;2023-04-27T13:44:28;8.80;;;3.58;;
3307;SDS011;1666;48.898;9.182;2023-04-27T13:47:00;6.57;;;3.45;;
3307;SDS011;1666;48.898;9.182;2023-04-27T13:49:31;5.95;;;3.88;;
3307;SDS011;1666;48.898;9.182;2023-04-27T13:52:01;5.80;;;3.78;;
3307;SDS011;1666;48.898;9.182;2023-04-27T13:54:31;5.45;;;3.72;;
3307;SDS011;1666;48.898;9.182;2023-04-27T13:57:01;5.68;;;3.25;;
3307;SDS011;1666;48.898;9.182;2023-04-27T13:59:31;6.35;;;3.85;;
3307;SDS011;1666;48.898;9.182;2023-04-27T14:02:03;7.20;;;3.72;;
3307;SDS011;1666;48.898;9.182;2023-04-27T14:04:33;4.95;;;3.60;;
3307;SDS011;1666;48.898;9.182;2023-04-27T14:07:03;9.00;;;4.30;;
3307;SDS011;1666;48.898;9.182;2023-04-27T14:09:33;6.95;;;4.55;;
3307;SDS011;1666;48.898;9.182;2023-04-27T14:12:03;7.05;;;5.22;;
3307;SDS011;1666;48.898;9.182;2023-04-27T14:14:34;7.97;;;4.50;;
3307;SDS011;1666;48.898;9.182;2023-04-27T14:17:07;7.97;;;4.45;;
3307;SDS011;1666;48.898;9.182;2023-04-27T14:19:37;8.75;;;4.35;;
3307;SDS011;1666;48.898;9.182;2023-04-27T14:22:08;7.88;;;4.93;;
3307;SDS011;1666;48.898;9.182;2023-04-27T14:24:38;7.20;;;4.50;;
3307;SDS011;1666;48.898;9.182;2023-04-27T14:27:08;5.15;;;3.90;;
3307;SDS011;1666;48.898;9.182;2023-04-27T14:29:38;5.65;;;3.50;;
3307;SDS011;1666;48.898;9.182;2023-04-27T14:32:10;7.47;;;3.70;;
3307;SDS011;1666;48.898;9.182;2023-04-27T14:34:40;5.97;;;3.90;;
3307;SDS011;1666;48.898;9.182;2023-04-27T14:37:10;7.18;;;3.75;;
3307;SDS011;1666;48.898;9.182;2023-04-27T14:39:40;9.40;;;3.50;;
3307;SDS011;1666;48.898;9.182;2023-04-27T14:42:11;3.53;;;3.05;;
3307;SDS011;1666;48.898;9.182;2023-04-27T14:44:40;5.65;;;3.20;;
3307;SDS011;1666;48.898;9.182;2023-04-27T14:47:16;5.47;;;2.88;;
3307;SDS011;1666;48.898;9.182;2023-04-27T14:49:46;7.88;;;2.67;;
3307;SDS011;1666;48.898;9.182;2023-04-27T14:52:16;8.82;;;2.88;;
3307;SDS011;1666;48.898;9.182;2023-04-27T14:54:46;8.88;;;3.00;;
3307;SDS011;1666;48.898;9.182;2023-04-27T14:57:16;5.38;;;2.58;;
3307;SDS011;1666;48.898;9.182;2023-04-27T14:59:46;7.18;;;3.20;;
3307;SDS011;1666;48.898;9.182;2023-04-27T15:02:19;5.28;;;3.03;;
3307;SDS011;1666;48.898;9.182;2023-04-27T15:04:49;4.93;;;3.10;;
3307;SDS011;1666;48.898;9.182;2023-04-27T15:07:19;9.35;;;3.40;;
3307;SDS011;1666;48.898;9.182;2023-04-27T15:09:51;5.03;;;3.35;;
3307;SDS011;1666;48.898;9.182;2023-04-27T15:12:21;6.20;;;3.00;;
3307;SDS011;1666;48.898;9.182;2023-04-27T15:14:51;8.95;;;3.15;;
3307;SDS011;1666;48.898;9.182;2023-04-27T15:17:24;5.50;;;2.95;;
3307;SDS011;1666;48.898;9.182;2023-04-27T15:19:55;3.72;;;2.67;;
3307;SDS011;1666;48.898;9.182;2023-04-27T15:22:25;4.95;;;2.95;;
3307;SDS011;1666;48.898;9.182;2023-04-27T15:24:55;5.30;;;2.95;;
3307;SDS011;1666;48.898;9.182;2023-04-27T15:27:25;3.30;;;2.50;;
3307;SDS011;1666;48.898;9.182;2023-04-27T15:29:56;6.40;;;2.92;;
3307;SDS011;1666;48.898;9.182;2023-04-27T15:32:32;5.05;;;2.92;;
3307;SDS011;1666;48.898;9.182;2023-04-27T15:35:02;6.20;;;3.00;;
3307;SDS011;1666;48.898;9.182;2023-04-27T15:37:34;6.38;;;3.08;;
3307;SDS011;1666;48.898;9.182;2023-04-27T15:40:05;10.20;;;3.15;;